sensor_id;sensor_type;location;lat;lon;timestamp;pressure;altitude;pressure_sealevel;temperature;humidity
49473;BME280;67434;50.956;6.918;2023-03-26T00:00:45;100350.19;;;9.58;67.52
49473;BME280;67434;50.956;6.918;2023-03-26T00:03:14;100351.78;;;9.54;68.14
49473;BME280;67434;50.956;6.918;2023-03-26T00:05:41;100349.91;;;9.55;67.87
49473;BME280;67434;50.956;6.918;2023-03-26T00:08:08;100350.94;;;9.49;67.83
49473;BME280;67434;50.956;6.918;2023-03-26T00:10:35;100350.97;;;9.54;67.87
49473;BME280;67434;50.956;6.918;2023-03-26T00:13:01;100352.88;;;9.53;68.23
49473;BME280;67434;50.956;6.918;2023-03-26T00:15:27;100358.25;;;9.53;68.14
49473;BME280;67434;50.956;6.918;2023-03-26T00:17:52;100358.81;;;9.55;67.63
49473;BME280;67434;50.956;6.918;2023-03-26T00:20:18;100356.38;;;9.54;68.43
49473;BME280;67434;50.956;6.918;2023-03-26T00:22:44;100350.72;;;9.55;68.42
49473;BME280;67434;50.956;6.918;2023-03-26T00:25:09;100349.66;;;9.56;68.74
49473;BME280;67434;50.956;6.918;2023-03-26T00:27:35;100356.41;;;9.59;67.99
49473;BME280;67434;50.956;6.918;2023-03-26T00:30:00;100346.16;;;9.61;67.96
49473;BME280;67434;50.956;6.918;2023-03-26T00:32:29;100345.09;;;9.62;67.96
49473;BME280;67434;50.956;6.918;2023-03-26T00:34:56;100346.16;;;9.61;68.27
49473;BME280;67434;50.956;6.918;2023-03-26T00:37:22;100338.88;;;9.61;68.04
49473;BME280;67434;50.956;6.918;2023-03-26T00:39:54;100340.25;;;9.64;68.15
49473;BME280;67434;50.956;6.918;2023-03-26T00:42:26;100339.97;;;9.60;68.49
49473;BME280;67434;50.956;6.918;2023-03-26T00:44:52;100326.75;;;9.64;67.63
49473;BME280;67434;50.956;6.918;2023-03-26T00:47:28;100322.66;;;9.56;68.12
49473;BME280;67434;50.956;6.918;2023-03-26T00:49:54;100321.09;;;9.65;67.74
49473;BME280;67434;50.956;6.918;2023-03-26T00:52:20;100317.81;;;9.58;67.94
49473;BME280;67434;50.956;6.918;2023-03-26T00:54:46;100322.97;;;9.60;68.01
49473;BME280;67434;50.956;6.918;2023-03-26T00:57:12;100325.59;;;9.50;68.48
49473;BME280;67434;50.956;6.918;2023-03-26T00:59:39;100320.75;;;9.52;68.45
49473;BME280;67434;50.956;6.918;2023-03-26T01:02:06;100314.81;;;9.50;68.27
49473;BME280;67434;50.956;6.918;2023-03-26T01:04:35;100303.50;;;9.53;67.74
49473;BME280;67434;50.956;6.918;2023-03-26T01:07:09;100301.88;;;9.52;68.14
49473;BME280;67434;50.956;6.918;2023-03-26T01:09:39;100296.69;;;9.45;68.06
49473;BME280;67434;50.956;6.918;2023-03-26T01:12:12;100299.63;;;9.38;68.67
49473;BME280;67434;50.956;6.918;2023-03-26T01:14:40;100288.72;;;9.23;68.94
49473;BME280;67434;50.956;6.918;2023-03-26T01:17:06;100282.09;;;9.04;69.55
49473;BME280;67434;50.956;6.918;2023-03-26T01:22:06;100266.19;;;8.70;71.12
49473;BME280;67434;50.956;6.918;2023-03-26T01:24:35;100269.09;;;8.64;71.47
49473;BME280;67434;50.956;6.918;2023-03-26T01:27:13;100269.31;;;8.57;71.77
49473;BME280;67434;50.956;6.918;2023-03-26T01:29:47;100270.28;;;8.51;71.92
49473;BME280;67434;50.956;6.918;2023-03-26T01:32:44;100261.59;;;8.44;72.32
49473;BME280;67434;50.956;6.918;2023-03-26T01:38:22;100262.19;;;8.24;73.25
49473;BME280;67434;50.956;6.918;2023-03-26T01:40:45;100261.69;;;8.27;72.83
49473;BME280;67434;50.956;6.918;2023-03-26T01:43:27;100253.81;;;8.21;73.59
49473;BME280;67434;50.956;6.918;2023-03-26T01:46:00;100253.13;;;8.08;74.18
49473;BME280;67434;50.956;6.918;2023-03-26T01:48:45;100254.06;;;7.97;74.43
49473;BME280;67434;50.956;6.918;2023-03-26T01:51:12;100247.56;;;7.93;74.91
49473;BME280;67434;50.956;6.918;2023-03-26T01:53:46;100243.75;;;7.89;75.41
49473;BME280;67434;50.956;6.918;2023-03-26T01:58:57;100243.28;;;7.75;75.90
49473;BME280;67434;50.956;6.918;2023-03-26T02:01:50;100235.66;;;7.67;76.05
49473;BME280;67434;50.956;6.918;2023-03-26T02:04:44;100237.41;;;7.78;76.09
49473;BME280;67434;50.956;6.918;2023-03-26T02:10:43;100226.75;;;7.83;76.05
49473;BME280;67434;50.956;6.918;2023-03-26T02:13:10;100215.47;;;7.87;75.67
49473;BME280;67434;50.956;6.918;2023-03-26T02:15:38;100223.84;;;7.90;75.93
49473;BME280;67434;50.956;6.918;2023-03-26T02:18:03;100217.75;;;8.00;75.20
49473;BME280;67434;50.956;6.918;2023-03-26T02:20:29;100217.56;;;8.06;75.00
49473;BME280;67434;50.956;6.918;2023-03-26T02:22:56;100212.22;;;8.11;74.79
49473;BME280;67434;50.956;6.918;2023-03-26T02:25:22;100201.75;;;8.15;74.88
49473;BME280;67434;50.956;6.918;2023-03-26T02:27:49;100194.97;;;8.07;74.72
49473;BME280;67434;50.956;6.918;2023-03-26T02:30:18;100195.25;;;8.11;74.50
49473;BME280;67434;50.956;6.918;2023-03-26T02:32:44;100189.13;;;8.15;74.46
49473;BME280;67434;50.956;6.918;2023-03-26T02:35:11;100182.75;;;8.22;74.37
49473;BME280;67434;50.956;6.918;2023-03-26T02:37:37;100181.47;;;8.29;73.68
49473;BME280;67434;50.956;6.918;2023-03-26T02:40:04;100169.56;;;8.25;73.98
49473;BME280;67434;50.956;6.918;2023-03-26T02:42:35;100169.88;;;8.29;74.03
49473;BME280;67434;50.956;6.918;2023-03-26T02:45:00;100167.19;;;8.29;73.47
49473;BME280;67434;50.956;6.918;2023-03-26T02:47:25;100163.53;;;8.40;73.35
49473;BME280;67434;50.956;6.918;2023-03-26T02:49:51;100157.78;;;8.31;73.92
49473;BME280;67434;50.956;6.918;2023-03-26T02:52:16;100151.91;;;8.34;73.69
49473;BME280;67434;50.956;6.918;2023-03-26T02:54:42;100153.84;;;8.39;73.36
49473;BME280;67434;50.956;6.918;2023-03-26T02:57:08;100150.88;;;8.40;73.47
49473;BME280;67434;50.956;6.918;2023-03-26T02:59:33;100138.31;;;8.51;73.09
49473;BME280;67434;50.956;6.918;2023-03-26T03:01:58;100135.69;;;8.56;72.74
49473;BME280;67434;50.956;6.918;2023-03-26T03:04:24;100133.81;;;8.62;72.64
49473;BME280;67434;50.956;6.918;2023-03-26T03:06:49;100130.88;;;8.63;72.64
49473;BME280;67434;50.956;6.918;2023-03-26T03:09:22;100131.13;;;8.62;73.19
49473;BME280;67434;50.956;6.918;2023-03-26T03:11:49;100129.03;;;8.69;72.42
49473;BME280;67434;50.956;6.918;2023-03-26T03:14:14;100129.38;;;8.83;71.84
49473;BME280;67434;50.956;6.918;2023-03-26T03:16:40;100126.97;;;8.86;71.64
49473;BME280;67434;50.956;6.918;2023-03-26T03:19:05;100122.94;;;8.89;71.33
49473;BME280;67434;50.956;6.918;2023-03-26T03:21:31;100122.13;;;8.88;71.59
49473;BME280;67434;50.956;6.918;2023-03-26T03:23:56;100115.13;;;8.87;71.50
49473;BME280;67434;50.956;6.918;2023-03-26T03:26:23;100115.38;;;8.86;71.61
49473;BME280;67434;50.956;6.918;2023-03-26T03:28:55;100109.41;;;8.78;72.31
49473;BME280;67434;50.956;6.918;2023-03-26T03:31:22;100102.44;;;8.83;72.22
49473;BME280;67434;50.956;6.918;2023-03-26T03:33:48;100099.72;;;8.83;72.59
49473;BME280;67434;50.956;6.918;2023-03-26T03:36:15;100101.84;;;8.75;72.54
49473;BME280;67434;50.956;6.918;2023-03-26T03:38:42;100103.50;;;8.82;72.98
49473;BME280;67434;50.956;6.918;2023-03-26T03:41:08;100094.63;;;8.86;72.46
49473;BME280;67434;50.956;6.918;2023-03-26T03:43:34;100096.22;;;8.82;72.88
49473;BME280;67434;50.956;6.918;2023-03-26T03:45:59;100093.78;;;8.81;73.08
49473;BME280;67434;50.956;6.918;2023-03-26T03:48:25;100088.13;;;8.77;72.71
49473;BME280;67434;50.956;6.918;2023-03-26T03:50:51;100085.69;;;8.75;72.84
49473;BME280;67434;50.956;6.918;2023-03-26T03:53:18;100076.53;;;8.82;73.48
49473;BME280;67434;50.956;6.918;2023-03-26T03:55:44;100073.81;;;8.76;73.41
49473;BME280;67434;50.956;6.918;2023-03-26T03:58:20;100070.06;;;8.77;73.73
49473;BME280;67434;50.956;6.918;2023-03-26T04:00:53;100070.31;;;8.76;74.30
49473;BME280;67434;50.956;6.918;2023-03-26T04:03:25;100054.09;;;8.66;73.85
49473;BME280;67434;50.956;6.918;2023-03-26T04:05:52;100048.94;;;8.59;74.41
49473;BME280;67434;50.956;6.918;2023-03-26T04:08:22;100045.47;;;8.64;74.75
49473;BME280;67434;50.956;6.918;2023-03-26T04:10:49;100039.28;;;8.63;74.45
49473;BME280;67434;50.956;6.918;2023-03-26T04:13:15;100047.00;;;8.55;75.55
49473;BME280;67434;50.956;6.918;2023-03-26T04:15:42;100040.53;;;8.51;75.44
49473;BME280;67434;50.956;6.918;2023-03-26T04:18:08;100036.47;;;8.48;75.80
49473;BME280;67434;50.956;6.918;2023-03-26T04:20:38;100027.31;;;8.49;76.15
49473;BME280;67434;50.956;6.918;2023-03-26T04:23:06;100017.91;;;8.52;75.89
49473;BME280;67434;50.956;6.918;2023-03-26T04:25:33;100013.31;;;8.52;75.98
49473;BME280;67434;50.956;6.918;2023-03-26T04:28:01;100010.63;;;8.52;75.40
49473;BME280;67434;50.956;6.918;2023-03-26T04:30:31;100005.78;;;8.49;75.61
49473;BME280;67434;50.956;6.918;2023-03-26T04:33:07;100001.44;;;8.43;76.18
49473;BME280;67434;50.956;6.918;2023-03-26T04:35:35;100001.13;;;8.34;76.29
49473;BME280;67434;50.956;6.918;2023-03-26T04:38:02;100005.44;;;8.35;76.34
49473;BME280;67434;50.956;6.918;2023-03-26T04:40:31;100000.91;;;8.46;75.89
49473;BME280;67434;50.956;6.918;2023-03-26T04:42:59;99999.59;;;8.54;75.98
49473;BME280;67434;50.956;6.918;2023-03-26T04:45:27;99986.66;;;8.51;75.91
49473;BME280;67434;50.956;6.918;2023-03-26T04:47:55;99985.28;;;8.43;76.36
49473;BME280;67434;50.956;6.918;2023-03-26T04:50:22;99979.84;;;8.38;76.36
49473;BME280;67434;50.956;6.918;2023-03-26T04:52:48;99978.81;;;8.44;76.17
49473;BME280;67434;50.956;6.918;2023-03-26T04:55:24;99975.03;;;8.40;76.17
49473;BME280;67434;50.956;6.918;2023-03-26T04:57:52;99975.03;;;8.40;76.44
49473;BME280;67434;50.956;6.918;2023-03-26T05:00:20;99965.34;;;8.44;76.14
49473;BME280;67434;50.956;6.918;2023-03-26T05:02:46;99964.28;;;8.45;76.54
49473;BME280;67434;50.956;6.918;2023-03-26T05:05:15;99951.88;;;8.44;76.02
49473;BME280;67434;50.956;6.918;2023-03-26T05:07:41;99959.97;;;8.44;76.40
49473;BME280;67434;50.956;6.918;2023-03-26T05:10:07;99955.38;;;8.44;76.74
49473;BME280;67434;50.956;6.918;2023-03-26T05:12:32;99956.94;;;8.35;76.81
49473;BME280;67434;50.956;6.918;2023-03-26T05:14:58;99941.28;;;8.32;77.10
49473;BME280;67434;50.956;6.918;2023-03-26T05:17:24;99947.00;;;8.36;76.74
49473;BME280;67434;50.956;6.918;2023-03-26T05:19:50;99946.19;;;8.35;76.79
49473;BME280;67434;50.956;6.918;2023-03-26T05:22:17;99940.00;;;8.40;77.01
49473;BME280;67434;50.956;6.918;2023-03-26T05:24:42;99942.97;;;8.43;76.80
49473;BME280;67434;50.956;6.918;2023-03-26T05:27:12;99938.38;;;8.39;77.19
49473;BME280;67434;50.956;6.918;2023-03-26T05:29:38;99935.47;;;8.51;77.09
49473;BME280;67434;50.956;6.918;2023-03-26T05:32:03;99934.72;;;8.55;76.30
49473;BME280;67434;50.956;6.918;2023-03-26T05:34:29;99927.69;;;8.54;76.50
49473;BME280;67434;50.956;6.918;2023-03-26T05:36:54;99918.28;;;8.57;76.43
49473;BME280;67434;50.956;6.918;2023-03-26T05:39:19;99925.56;;;8.56;76.87
49473;BME280;67434;50.956;6.918;2023-03-26T05:41:49;99919.34;;;8.56;77.27
49473;BME280;67434;50.956;6.918;2023-03-26T05:44:15;99914.22;;;8.54;77.35
49473;BME280;67434;50.956;6.918;2023-03-26T05:46:40;99922.28;;;8.54;77.84
49473;BME280;67434;50.956;6.918;2023-03-26T05:49:05;99906.13;;;8.54;78.09
49473;BME280;67434;50.956;6.918;2023-03-26T05:51:31;99910.41;;;8.50;79.32
49473;BME280;67434;50.956;6.918;2023-03-26T05:53:56;99906.09;;;8.49;80.78
49473;BME280;67434;50.956;6.918;2023-03-26T05:56:21;99906.66;;;8.51;81.35
49473;BME280;67434;50.956;6.918;2023-03-26T05:58:47;99901.78;;;8.48;81.04
49473;BME280;67434;50.956;6.918;2023-03-26T06:01:12;99895.84;;;8.41;81.59
49473;BME280;67434;50.956;6.918;2023-03-26T06:03:42;99896.38;;;8.43;82.27
49473;BME280;67434;50.956;6.918;2023-03-26T06:06:15;99897.44;;;8.37;82.72
49473;BME280;67434;50.956;6.918;2023-03-26T06:08:45;99888.00;;;8.34;83.65
49473;BME280;67434;50.956;6.918;2023-03-26T06:11:11;99881.50;;;8.30;83.15
49473;BME280;67434;50.956;6.918;2023-03-26T06:13:37;99878.31;;;8.33;83.33
49473;BME280;67434;50.956;6.918;2023-03-26T06:16:04;99861.31;;;8.33;83.70
49473;BME280;67434;50.956;6.918;2023-03-26T06:18:30;99864.06;;;8.38;83.14
49473;BME280;67434;50.956;6.918;2023-03-26T06:20:56;99857.81;;;8.32;83.07
49473;BME280;67434;50.956;6.918;2023-03-26T06:23:21;99853.25;;;8.33;83.53
49473;BME280;67434;50.956;6.918;2023-03-26T06:25:47;99847.91;;;8.38;83.39
49473;BME280;67434;50.956;6.918;2023-03-26T06:28:12;99849.53;;;8.39;83.51
49473;BME280;67434;50.956;6.918;2023-03-26T06:30:38;99843.59;;;8.42;82.95
49473;BME280;67434;50.956;6.918;2023-03-26T06:33:04;99838.75;;;8.39;82.98
49473;BME280;67434;50.956;6.918;2023-03-26T06:35:30;99842.50;;;8.38;84.13
49473;BME280;67434;50.956;6.918;2023-03-26T06:37:56;99833.59;;;8.32;84.16
49473;BME280;67434;50.956;6.918;2023-03-26T06:40:21;99837.13;;;8.38;83.55
49473;BME280;67434;50.956;6.918;2023-03-26T06:42:47;99833.91;;;8.36;83.85
49473;BME280;67434;50.956;6.918;2023-03-26T06:45:12;99831.75;;;8.38;83.91
49473;BME280;67434;50.956;6.918;2023-03-26T06:47:37;99836.34;;;8.42;84.15
49473;BME280;67434;50.956;6.918;2023-03-26T06:50:04;99830.16;;;8.47;83.85
49473;BME280;67434;50.956;6.918;2023-03-26T06:52:29;99829.63;;;8.50;84.22
49473;BME280;67434;50.956;6.918;2023-03-26T06:54:55;99826.09;;;8.44;84.39
49473;BME280;67434;50.956;6.918;2023-03-26T06:57:20;99829.59;;;8.45;84.48
49473;BME280;67434;50.956;6.918;2023-03-26T06:59:46;99820.47;;;8.51;84.21
49473;BME280;67434;50.956;6.918;2023-03-26T07:02:11;99817.22;;;8.49;84.26
49473;BME280;67434;50.956;6.918;2023-03-26T07:04:37;99809.69;;;8.46;84.32
49473;BME280;67434;50.956;6.918;2023-03-26T07:07:03;99809.41;;;8.48;84.12
49473;BME280;67434;50.956;6.918;2023-03-26T07:09:28;99803.22;;;8.47;84.10
49473;BME280;67434;50.956;6.918;2023-03-26T07:11:56;99801.59;;;8.51;83.92
49473;BME280;67434;50.956;6.918;2023-03-26T07:14:23;99800.53;;;8.52;84.27
49473;BME280;67434;50.956;6.918;2023-03-26T07:16:56;99795.94;;;8.48;84.46
49473;BME280;67434;50.956;6.918;2023-03-26T07:19:22;99795.41;;;8.45;84.27
49473;BME280;67434;50.956;6.918;2023-03-26T07:21:47;99796.69;;;8.33;85.36
49473;BME280;67434;50.956;6.918;2023-03-26T07:24:13;99796.69;;;8.33;85.75
49473;BME280;67434;50.956;6.918;2023-03-26T07:26:52;99796.16;;;8.31;85.50
49473;BME280;67434;50.956;6.918;2023-03-26T07:29:31;99789.19;;;8.35;85.56
49473;BME280;67434;50.956;6.918;2023-03-26T07:32:15;99795.66;;;8.34;85.84
49473;BME280;67434;50.956;6.918;2023-03-26T07:37:46;99781.66;;;8.42;85.00
49473;BME280;67434;50.956;6.918;2023-03-26T07:43:09;99771.16;;;8.40;85.11
49473;BME280;67434;50.956;6.918;2023-03-26T07:45:41;99760.66;;;8.34;85.97
49473;BME280;67434;50.956;6.918;2023-03-26T07:48:25;99762.75;;;8.32;85.80
49473;BME280;67434;50.956;6.918;2023-03-26T07:50:54;99753.88;;;8.31;85.28
49473;BME280;67434;50.956;6.918;2023-03-26T07:53:21;99758.72;;;8.29;86.05
49473;BME280;67434;50.956;6.918;2023-03-26T07:56:00;99761.16;;;8.31;86.00
49473;BME280;67434;50.956;6.918;2023-03-26T07:58:51;99759.56;;;8.35;85.64
49473;BME280;67434;50.956;6.918;2023-03-26T08:01:49;99755.28;;;8.39;85.89
49473;BME280;67434;50.956;6.918;2023-03-26T08:07:01;99745.03;;;8.41;85.67
49473;BME280;67434;50.956;6.918;2023-03-26T08:13:15;99747.47;;;8.37;86.17
49473;BME280;67434;50.956;6.918;2023-03-26T08:15:49;99743.97;;;8.42;85.91
49473;BME280;67434;50.956;6.918;2023-03-26T08:18:39;99739.06;;;8.29;86.48
49473;BME280;67434;50.956;6.918;2023-03-26T08:21:11;99738.53;;;8.32;86.35
49473;BME280;67434;50.956;6.918;2023-03-26T08:24:00;99745.81;;;8.31;86.11
49473;BME280;67434;50.956;6.918;2023-03-26T08:26:52;99743.63;;;8.23;86.52
49473;BME280;67434;50.956;6.918;2023-03-26T08:29:34;99737.44;;;8.28;86.44
49473;BME280;67434;50.956;6.918;2023-03-26T08:32:13;99734.22;;;8.31;86.46
49473;BME280;67434;50.956;6.918;2023-03-26T08:34:39;99739.91;;;8.34;86.61
49473;BME280;67434;50.956;6.918;2023-03-26T08:37:05;99737.22;;;8.39;86.18
49473;BME280;67434;50.956;6.918;2023-03-26T08:39:31;99731.31;;;8.37;86.21
49473;BME280;67434;50.956;6.918;2023-03-26T08:53:52;99721.34;;;8.38;85.07
49473;BME280;67434;50.956;6.918;2023-03-26T08:56:48;99718.09;;;8.36;85.61
49473;BME280;67434;50.956;6.918;2023-03-26T09:05:02;99724.03;;;8.48;85.62
49473;BME280;67434;50.956;6.918;2023-03-26T09:10:45;99702.78;;;8.62;84.41
49473;BME280;67434;50.956;6.918;2023-03-26T09:13:29;99710.34;;;8.65;83.17
49473;BME280;67434;50.956;6.918;2023-03-26T09:16:26;99703.59;;;8.62;83.54
49473;BME280;67434;50.956;6.918;2023-03-26T09:33:05;99666.69;;;8.63;80.78
49473;BME280;67434;50.956;6.918;2023-03-26T09:38:43;99657.28;;;8.60;81.22
49473;BME280;67434;50.956;6.918;2023-03-26T09:49:29;99648.91;;;8.67;80.30
49473;BME280;67434;50.956;6.918;2023-03-26T09:55:17;99639.44;;;8.80;79.61
49473;BME280;67434;50.956;6.918;2023-03-26T09:57:54;99633.50;;;8.88;80.12
49473;BME280;67434;50.956;6.918;2023-03-26T10:01:05;99634.56;;;8.92;79.78
49473;BME280;67434;50.956;6.918;2023-03-26T10:09:00;99622.91;;;9.22;79.03
49473;BME280;67434;50.956;6.918;2023-03-26T10:11:48;99620.47;;;9.25;78.70
49473;BME280;67434;50.956;6.918;2023-03-26T10:14:23;99624.78;;;9.36;78.64
49473;BME280;67434;50.956;6.918;2023-03-26T10:23:01;99604.72;;;9.53;78.06
49473;BME280;67434;50.956;6.918;2023-03-26T10:25:52;99606.56;;;9.62;77.62
49473;BME280;67434;50.956;6.918;2023-03-26T10:36:30;99595.00;;;9.57;77.24
49473;BME280;67434;50.956;6.918;2023-03-26T10:47:51;99580.09;;;10.09;76.69
49473;BME280;67434;50.956;6.918;2023-03-26T10:50:25;99585.03;;;10.36;76.10
49473;BME280;67434;50.956;6.918;2023-03-26T10:55:38;99571.47;;;10.46;74.55
49473;BME280;67434;50.956;6.918;2023-03-26T10:58:12;99571.47;;;10.46;74.61
49473;BME280;67434;50.956;6.918;2023-03-26T11:01:03;99567.91;;;10.50;74.60
49473;BME280;67434;50.956;6.918;2023-03-26T11:03:40;99569.34;;;10.67;74.82
49473;BME280;67434;50.956;6.918;2023-03-26T11:06:35;99562.25;;;11.00;74.06
49473;BME280;67434;50.956;6.918;2023-03-26T11:09:16;99566.91;;;11.18;73.44
49473;BME280;67434;50.956;6.918;2023-03-26T11:11:53;99551.88;;;11.31;72.89
49473;BME280;67434;50.956;6.918;2023-03-26T11:14:42;99549.00;;;11.22;72.54
49473;BME280;67434;50.956;6.918;2023-03-26T11:17:41;99547.78;;;11.09;73.27
49473;BME280;67434;50.956;6.918;2023-03-26T11:26:06;99549.06;;;10.40;76.22
49473;BME280;67434;50.956;6.918;2023-03-26T11:28:59;99551.34;;;10.28;75.96
49473;BME280;67434;50.956;6.918;2023-03-26T11:31:46;99543.81;;;10.25;77.12
49473;BME280;67434;50.956;6.918;2023-03-26T11:34:16;99547.88;;;10.22;76.83
49473;BME280;67434;50.956;6.918;2023-03-26T11:36:51;99540.69;;;10.42;77.47
49473;BME280;67434;50.956;6.918;2023-03-26T11:39:26;99547.22;;;10.64;76.92
49473;BME280;67434;50.956;6.918;2023-03-26T11:42:13;99541.66;;;10.80;76.45
49473;BME280;67434;50.956;6.918;2023-03-26T11:44:45;99533.03;;;11.02;75.92
49473;BME280;67434;50.956;6.918;2023-03-26T11:47:14;99530.00;;;11.27;74.64
49473;BME280;67434;50.956;6.918;2023-03-26T11:49:44;99527.47;;;11.54;74.32
49473;BME280;67434;50.956;6.918;2023-03-26T11:52:10;99524.63;;;11.65;73.12
49473;BME280;67434;50.956;6.918;2023-03-26T11:54:36;99519.34;;;11.54;73.37
49473;BME280;67434;50.956;6.918;2023-03-26T11:57:06;99525.06;;;11.53;74.23
49473;BME280;67434;50.956;6.918;2023-03-26T11:59:48;99522.19;;;11.44;74.50
49473;BME280;67434;50.956;6.918;2023-03-26T12:02:26;99527.31;;;11.46;74.54
49473;BME280;67434;50.956;6.918;2023-03-26T12:05:10;99525.78;;;11.40;74.59
49473;BME280;67434;50.956;6.918;2023-03-26T12:07:43;99517.00;;;11.48;74.13
49473;BME280;67434;50.956;6.918;2023-03-26T12:10:21;99519.28;;;11.59;74.51
49473;BME280;67434;50.956;6.918;2023-03-26T12:12:47;99518.91;;;11.66;74.13
49473;BME280;67434;50.956;6.918;2023-03-26T12:15:14;99512.25;;;11.77;73.85
49473;BME280;67434;50.956;6.918;2023-03-26T12:17:41;99512.09;;;11.87;73.88
49473;BME280;67434;50.956;6.918;2023-03-26T12:22:49;99515.59;;;12.07;73.25
49473;BME280;67434;50.956;6.918;2023-03-26T12:25:22;99511.59;;;12.18;72.57
49473;BME280;67434;50.956;6.918;2023-03-26T12:27:59;99512.47;;;12.00;72.66
49473;BME280;67434;50.956;6.918;2023-03-26T12:30:33;99518.31;;;11.69;73.56
49473;BME280;67434;50.956;6.918;2023-03-26T12:33:03;99527.41;;;11.59;74.04
49473;BME280;67434;50.956;6.918;2023-03-26T12:35:33;99527.69;;;11.58;74.12
49473;BME280;67434;50.956;6.918;2023-03-26T12:38:18;99527.88;;;11.43;74.56
49473;BME280;67434;50.956;6.918;2023-03-26T12:40:46;99520.44;;;11.35;74.84
49473;BME280;67434;50.956;6.918;2023-03-26T12:43:21;99526.13;;;11.33;75.69
49473;BME280;67434;50.956;6.918;2023-03-26T12:45:49;99525.84;;;11.35;76.08
49473;BME280;67434;50.956;6.918;2023-03-26T12:48:18;99526.06;;;11.38;75.37
49473;BME280;67434;50.956;6.918;2023-03-26T12:54:08;99532.72;;;11.46;75.25
49473;BME280;67434;50.956;6.918;2023-03-26T12:59:45;99530.31;;;11.25;75.67
49473;BME280;67434;50.956;6.918;2023-03-26T13:05:26;99537.81;;;10.86;75.88
49473;BME280;67434;50.956;6.918;2023-03-26T13:08:35;99548.66;;;10.57;76.45
49473;BME280;67434;50.956;6.918;2023-03-26T13:16:40;99550.38;;;10.14;78.03
49473;BME280;67434;50.956;6.918;2023-03-26T13:19:25;99552.06;;;10.39;76.92
49473;BME280;67434;50.956;6.918;2023-03-26T13:22:18;99552.69;;;10.59;75.19
49473;BME280;67434;50.956;6.918;2023-03-26T13:27:58;99562.03;;;10.96;74.79
49473;BME280;67434;50.956;6.918;2023-03-26T13:33:19;99574.69;;;11.01;74.57
49473;BME280;67434;50.956;6.918;2023-03-26T13:38:49;99565.91;;;10.61;75.05
49473;BME280;67434;50.956;6.918;2023-03-26T13:41:41;99569.72;;;10.26;75.52
49473;BME280;67434;50.956;6.918;2023-03-26T13:44:28;99565.28;;;10.06;77.32
49473;BME280;67434;50.956;6.918;2023-03-26T13:47:02;99565.28;;;10.06;78.97
49473;BME280;67434;50.956;6.918;2023-03-26T13:49:36;99573.00;;;10.18;78.87
49473;BME280;67434;50.956;6.918;2023-03-26T13:52:16;99568.53;;;10.42;78.59
49473;BME280;67434;50.956;6.918;2023-03-26T13:57:38;99575.38;;;10.58;75.47
49473;BME280;67434;50.956;6.918;2023-03-26T14:00:14;99580.84;;;10.53;76.17
49473;BME280;67434;50.956;6.918;2023-03-26T14:02:48;99588.00;;;10.68;74.97
49473;BME280;67434;50.956;6.918;2023-03-26T14:05:22;99575.91;;;10.60;74.22
49473;BME280;67434;50.956;6.918;2023-03-26T14:07:57;99585.53;;;10.72;73.99
49473;BME280;67434;50.956;6.918;2023-03-26T14:10:28;99583.69;;;10.67;74.40
49473;BME280;67434;50.956;6.918;2023-03-26T14:13:14;99587.06;;;10.54;74.24
49473;BME280;67434;50.956;6.918;2023-03-26T14:15:48;99579.66;;;10.64;73.05
49473;BME280;67434;50.956;6.918;2023-03-26T14:20:59;99597.34;;;10.81;73.14
49473;BME280;67434;50.956;6.918;2023-03-26T14:32:10;99611.03;;;10.26;72.67
49473;BME280;67434;50.956;6.918;2023-03-26T14:34:44;99610.44;;;10.34;73.03
49473;BME280;67434;50.956;6.918;2023-03-26T14:43:04;99608.97;;;11.05;70.50
49473;BME280;67434;50.956;6.918;2023-03-26T14:51:53;99624.13;;;11.49;68.64
49473;BME280;67434;50.956;6.918;2023-03-26T14:54:25;99631.53;;;11.19;68.98
49473;BME280;67434;50.956;6.918;2023-03-26T14:57:16;99629.16;;;11.37;68.88
49473;BME280;67434;50.956;6.918;2023-03-26T15:05:48;99646.88;;;10.42;71.01
49473;BME280;67434;50.956;6.918;2023-03-26T15:11:33;99642.34;;;9.83;72.85
49473;BME280;67434;50.956;6.918;2023-03-26T15:16:54;99650.53;;;9.63;72.36
49473;BME280;67434;50.956;6.918;2023-03-26T15:33:53;99675.34;;;9.65;72.22
49473;BME280;67434;50.956;6.918;2023-03-26T15:39:29;99681.66;;;9.40;72.48
49473;BME280;67434;50.956;6.918;2023-03-26T15:42:07;99695.91;;;9.51;71.84
49473;BME280;67434;50.956;6.918;2023-03-26T15:47:36;99700.06;;;9.13;74.05
49473;BME280;67434;50.956;6.918;2023-03-26T15:52:49;99701.44;;;8.85;74.52
49473;BME280;67434;50.956;6.918;2023-03-26T15:58:14;99711.13;;;8.81;76.02
49473;BME280;67434;50.956;6.918;2023-03-26T16:00:55;99721.38;;;8.84;75.99
49473;BME280;67434;50.956;6.918;2023-03-26T16:03:41;99715.44;;;8.87;74.56
49473;BME280;67434;50.956;6.918;2023-03-26T16:06:39;99724.59;;;8.86;74.78
49473;BME280;67434;50.956;6.918;2023-03-26T16:09:27;99732.16;;;8.73;75.21
49473;BME280;67434;50.956;6.918;2023-03-26T16:14:45;99747.25;;;8.74;76.36
49473;BME280;67434;50.956;6.918;2023-03-26T16:20:28;99753.69;;;8.58;77.03
49473;BME280;67434;50.956;6.918;2023-03-26T16:23:01;99749.91;;;8.49;77.27
49473;BME280;67434;50.956;6.918;2023-03-26T16:25:33;99754.47;;;8.49;78.01
49473;BME280;67434;50.956;6.918;2023-03-26T16:28:18;99756.59;;;8.36;77.23
49473;BME280;67434;50.956;6.918;2023-03-26T16:34:17;99775.66;;;8.20;77.91
49473;BME280;67434;50.956;6.918;2023-03-26T16:36:43;99773.47;;;8.16;78.32
49473;BME280;67434;50.956;6.918;2023-03-26T16:39:25;99785.63;;;8.19;78.50
49473;BME280;67434;50.956;6.918;2023-03-26T16:42:19;99792.31;;;8.16;78.07
49473;BME280;67434;50.956;6.918;2023-03-26T16:45:15;99793.94;;;8.18;78.65
49473;BME280;67434;50.956;6.918;2023-03-26T16:50:28;99804.41;;;8.14;80.19
49473;BME280;67434;50.956;6.918;2023-03-26T16:58:58;99822.16;;;8.10;80.09
49473;BME280;67434;50.956;6.918;2023-03-26T17:01:46;99834.84;;;8.14;79.90
49473;BME280;67434;50.956;6.918;2023-03-26T17:04:15;99842.09;;;8.14;79.28
49473;BME280;67434;50.956;6.918;2023-03-26T17:09:49;99846.63;;;7.98;79.70
49473;BME280;67434;50.956;6.918;2023-03-26T17:12:26;99860.59;;;7.95;81.16